createdAt,value
2019-06-10T00:01:40.747Z,9.03
2019-06-10T00:04:08.764Z,9.20
2019-06-10T00:06:34.707Z,11.03
2019-06-10T00:09:04.636Z,7.08
2019-06-10T00:11:31.509Z,10.25
2019-06-10T00:13:58.586Z,11.50
2019-06-10T00:16:24.816Z,7.20
2019-06-10T00:18:51.207Z,9.08
2019-06-10T00:21:17.392Z,8.60
2019-06-10T00:23:43.628Z,6.90
2019-06-10T00:26:12.202Z,9.55
2019-06-10T00:28:38.008Z,9.60
2019-06-10T00:31:05.386Z,8.93
2019-06-10T00:33:32.438Z,6.35
2019-06-10T00:35:58.910Z,7.62
2019-06-10T00:38:25.084Z,7.60
2019-06-10T00:40:51.486Z,8.53
2019-06-10T00:43:18.089Z,7.50
2019-06-10T00:45:44.555Z,10.95
2019-06-10T00:48:24.261Z,7.05
2019-06-10T00:50:41.372Z,6.83
2019-06-10T00:53:07.599Z,8.65
2019-06-10T00:55:34.092Z,9.15
2019-06-10T00:58:01.442Z,12.25
2019-06-10T01:00:28.821Z,9.40
2019-06-10T01:03:00.676Z,8.95
2019-06-10T01:05:26.529Z,10.08
2019-06-10T01:07:52.778Z,8.80
2019-06-10T01:10:21.054Z,6.33
2019-06-10T01:12:47.272Z,8.93
2019-06-10T01:15:15.223Z,7.92
2019-06-10T01:17:41.810Z,9.50
2019-06-10T01:20:08.362Z,9.63
2019-06-10T01:22:34.574Z,5.92
2019-06-10T01:25:01.683Z,12.28
2019-06-10T01:27:27.948Z,6.65
2019-06-10T01:29:54.048Z,8.63
2019-06-10T01:32:21.645Z,7.97
2019-06-10T01:34:50.669Z,8.43
2019-06-10T01:37:17.506Z,7.37
2019-06-10T01:39:43.934Z,9.43
2019-06-10T01:42:11.358Z,7.47
2019-06-10T01:44:38.234Z,11.22
2019-06-10T01:47:04.445Z,8.15
2019-06-10T01:49:30.942Z,9.80
2019-06-10T01:51:57.309Z,10.28
2019-06-10T01:54:23.399Z,8.68
2019-06-10T01:56:51.062Z,9.58
2019-06-10T01:59:18.708Z,7.58
2019-06-10T02:01:46.851Z,8.55
2019-06-10T02:04:16.089Z,10.15
2019-06-10T02:06:41.298Z,8.10
2019-06-10T02:09:08.892Z,8.13
2019-06-10T02:11:36.081Z,10.20
2019-06-10T02:14:04.718Z,6.90
2019-06-10T02:16:32.547Z,8.75
2019-06-10T02:19:01.457Z,9.85
2019-06-10T02:21:27.042Z,8.33
2019-06-10T02:23:53.659Z,8.93
2019-06-10T02:26:22.242Z,9.00
2019-06-10T02:28:48.120Z,7.83
2019-06-10T02:31:18.731Z,9.43
2019-06-10T02:33:42.510Z,9.83
2019-06-10T02:36:08.788Z,10.32
2019-06-10T02:38:39.251Z,6.97
2019-06-10T02:41:04.670Z,9.95
2019-06-10T02:43:36.649Z,8.80
2019-06-10T02:45:59.591Z,10.23
2019-06-10T02:48:30.332Z,8.33
2019-06-10T02:50:57.819Z,8.63
2019-06-10T02:53:30.547Z,7.25
2019-06-10T02:55:53.885Z,8.93
2019-06-10T02:58:23.144Z,8.53
2019-06-10T03:00:49.301Z,9.70
2019-06-10T03:03:22.792Z,10.48
2019-06-10T03:05:46.645Z,11.60
2019-06-10T03:08:13.165Z,9.10
2019-06-10T03:10:39.402Z,8.50
2019-06-10T03:13:05.530Z,7.87
2019-06-10T03:15:36.779Z,8.33
2019-06-10T03:18:03.108Z,6.72
2019-06-10T03:20:29.231Z,8.68
2019-06-10T03:22:55.450Z,10.65
2019-06-10T03:25:23.302Z,9.60
2019-06-10T03:27:49.642Z,8.68
2019-06-10T03:30:22.077Z,9.90
2019-06-10T03:32:46.813Z,9.45
2019-06-10T03:35:13.293Z,9.10
2019-06-10T03:37:42.231Z,11.22
2019-06-10T03:40:08.101Z,9.93
2019-06-10T03:42:34.427Z,10.25
2019-06-10T03:45:03.155Z,9.00
2019-06-10T03:47:29.039Z,10.40
2019-06-10T03:49:56.301Z,12.85
2019-06-10T03:52:25.237Z,10.55
2019-06-10T03:54:52.477Z,8.45
2019-06-10T03:57:19.246Z,9.10
2019-06-10T03:59:45.611Z,9.43
2019-06-10T04:02:12.819Z,8.90
2019-06-10T04:04:39.077Z,10.15
2019-06-10T04:07:05.601Z,9.93
2019-06-10T04:09:33.069Z,13.72
2019-06-10T04:12:01.909Z,10.68
2019-06-10T04:14:28.513Z,8.33
2019-06-10T04:16:54.719Z,10.78
2019-06-10T04:19:25.434Z,9.03
2019-06-10T04:21:53.234Z,9.35
2019-06-10T04:24:22.293Z,10.10
2019-06-10T04:26:47.879Z,8.75
2019-06-10T04:29:14.063Z,7.12
2019-06-10T04:31:42.513Z,10.13
2019-06-10T04:34:08.968Z,7.53
2019-06-10T04:36:35.193Z,9.80
2019-06-10T04:39:03.243Z,7.97
2019-06-10T04:41:29.637Z,11.10
2019-06-10T04:43:56.083Z,9.68
2019-06-10T04:46:24.939Z,10.23
2019-06-10T04:48:53.276Z,10.10
2019-06-10T04:51:20.759Z,9.73
2019-06-10T04:53:47.616Z,10.08
2019-06-10T04:56:16.725Z,10.60
2019-06-10T04:58:43.454Z,9.35
2019-06-10T05:01:12.019Z,9.90
2019-06-10T05:03:37.859Z,11.70
2019-06-10T05:06:04.163Z,8.65
2019-06-10T05:08:33.303Z,9.15
2019-06-10T05:10:58.638Z,9.98
2019-06-10T05:13:26.512Z,9.28
2019-06-10T05:15:53.265Z,8.58
2019-06-10T05:18:19.559Z,11.18
2019-06-10T05:20:54.941Z,9.48
2019-06-10T05:23:13.905Z,10.72
2019-06-10T05:25:42.652Z,13.28
2019-06-10T05:28:08.716Z,10.30
2019-06-10T05:30:34.913Z,10.10
2019-06-10T05:33:02.977Z,10.55
2019-06-10T05:35:29.962Z,8.18
2019-06-10T05:37:57.000Z,11.18
2019-06-10T05:40:24.797Z,10.32
2019-06-10T05:42:52.849Z,13.28
2019-06-10T05:45:19.204Z,10.63
2019-06-10T05:47:45.444Z,9.35
2019-06-10T05:50:13.634Z,8.90
2019-06-10T05:52:39.840Z,9.30
2019-06-10T05:55:06.070Z,7.97
2019-06-10T05:57:34.180Z,7.72
2019-06-10T06:00:04.161Z,11.63
2019-06-10T06:02:29.820Z,12.65
2019-06-10T06:04:56.427Z,10.75
2019-06-10T06:07:22.670Z,10.82
2019-06-10T06:09:49.083Z,14.50
2019-06-10T06:12:15.328Z,11.15
2019-06-10T06:14:42.632Z,8.83
2019-06-10T06:17:09.073Z,8.65
2019-06-10T06:19:37.355Z,10.32
2019-06-10T06:22:03.603Z,8.45
2019-06-10T06:24:29.823Z,9.08
2019-06-10T06:26:57.248Z,10.70
2019-06-10T06:29:23.499Z,10.60
2019-06-10T06:31:52.090Z,8.95
2019-06-10T06:34:22.355Z,9.90
2019-06-10T06:36:48.030Z,9.55
2019-06-10T06:39:14.749Z,10.63
2019-06-10T06:41:42.704Z,11.35
2019-06-10T06:44:09.322Z,12.28
2019-06-10T06:46:37.799Z,9.35
2019-06-10T06:49:04.295Z,11.73
2019-06-10T06:51:45.678Z,10.25
2019-06-10T06:53:58.785Z,10.95
2019-06-10T06:56:25.043Z,10.05
2019-06-10T06:58:52.442Z,9.45
2019-06-10T07:01:21.977Z,11.60
2019-06-10T07:03:47.428Z,8.60
2019-06-10T07:06:14.134Z,8.78
2019-06-10T07:08:41.518Z,10.10
2019-06-10T07:11:10.641Z,10.93
2019-06-10T07:13:39.562Z,10.80
2019-06-10T07:16:06.636Z,9.95
2019-06-10T07:18:38.801Z,10.43
2019-06-10T07:21:02.677Z,11.97
2019-06-10T07:23:29.110Z,9.98
2019-06-10T07:25:56.961Z,9.88
2019-06-10T07:28:23.348Z,11.80
2019-06-10T07:30:52.846Z,10.28
2019-06-10T07:33:17.527Z,11.65
2019-06-10T07:35:45.354Z,10.95
2019-06-10T07:38:12.268Z,12.47
2019-06-10T07:40:39.225Z,15.60
2019-06-10T07:43:05.509Z,10.40
2019-06-10T07:45:33.768Z,11.70
2019-06-10T07:47:59.761Z,12.73
2019-06-10T07:50:26.059Z,11.48
2019-06-10T07:52:52.912Z,12.50
2019-06-10T07:55:19.304Z,12.30
2019-06-10T07:57:45.747Z,10.15
2019-06-10T08:00:13.779Z,13.75
2019-06-10T08:02:42.838Z,12.28
2019-06-10T08:05:08.655Z,12.10
2019-06-10T08:07:35.326Z,14.83
2019-06-10T08:10:03.573Z,12.03
2019-06-10T08:12:32.400Z,13.53
2019-06-10T08:14:58.181Z,12.53
2019-06-10T08:17:24.313Z,10.75
2019-06-10T08:19:53.831Z,10.65
2019-06-10T08:22:31.188Z,12.53
2019-06-10T08:24:48.007Z,11.88
2019-06-10T08:27:14.927Z,10.60
2019-06-10T08:29:46.121Z,10.40
2019-06-10T08:32:12.944Z,13.45
2019-06-10T08:34:40.096Z,12.90
2019-06-10T08:37:07.151Z,11.95
2019-06-10T08:39:33.683Z,12.68
2019-06-10T08:41:59.987Z,11.33
2019-06-10T08:44:26.442Z,10.43
2019-06-10T08:46:52.864Z,12.73
2019-06-10T08:49:19.384Z,15.25
2019-06-10T08:51:49.969Z,11.80
2019-06-10T08:54:14.741Z,12.73
2019-06-10T08:56:45.145Z,18.65
2019-06-10T08:59:09.493Z,11.28
2019-06-10T09:01:37.728Z,9.93
2019-06-10T09:04:05.065Z,11.18
2019-06-10T09:06:32.998Z,13.60
2019-06-10T09:08:59.535Z,10.78
2019-06-10T09:11:25.799Z,11.43
2019-06-10T09:13:53.208Z,12.58
2019-06-10T09:16:19.828Z,10.68
2019-06-10T09:18:49.084Z,12.45
2019-06-10T09:21:14.430Z,10.28
2019-06-10T09:23:43.210Z,12.93
2019-06-10T09:26:08.906Z,15.15
2019-06-10T09:28:35.152Z,10.85
2019-06-10T09:31:04.302Z,12.15
2019-06-10T09:33:29.675Z,10.58
2019-06-10T09:35:56.350Z,10.05
2019-06-10T09:38:22.706Z,10.58
2019-06-10T09:41:00.493Z,9.08
2019-06-10T09:43:22.575Z,10.95
2019-06-10T09:45:50.379Z,11.00
2019-06-10T09:48:22.872Z,12.80
2019-06-10T09:50:51.379Z,13.40
2019-06-10T09:53:30.190Z,13.78
2019-06-10T09:55:49.104Z,13.18
2019-06-10T09:58:14.368Z,13.10
2019-06-10T10:00:49.399Z,11.03
2019-06-10T10:03:15.473Z,14.43
2019-06-10T10:05:54.613Z,12.55
2019-06-10T10:08:12.584Z,11.03
2019-06-10T10:10:39.088Z,10.78
2019-06-10T10:13:06.231Z,11.95
2019-06-10T10:15:34.489Z,13.93
2019-06-10T10:18:05.450Z,9.95
2019-06-10T10:20:34.095Z,9.55
2019-06-10T10:23:02.522Z,14.38
2019-06-10T10:25:28.272Z,12.30
2019-06-10T10:27:57.594Z,11.55
2019-06-10T10:30:24.539Z,11.53
2019-06-10T10:32:52.736Z,13.53
2019-06-10T10:35:19.547Z,9.80
2019-06-10T10:37:46.410Z,10.35
2019-06-10T10:40:13.126Z,8.70
2019-06-10T10:42:47.701Z,13.22
2019-06-10T10:45:13.058Z,10.70
2019-06-10T10:47:38.945Z,12.65
2019-06-10T10:50:05.528Z,9.15
2019-06-10T10:52:33.070Z,11.70
2019-06-10T10:55:06.974Z,13.72
2019-06-10T10:57:33.412Z,11.60
2019-06-10T11:00:03.173Z,10.58
2019-06-10T11:02:29.189Z,11.45
2019-06-10T11:04:57.053Z,12.15
2019-06-10T11:07:23.731Z,14.07
2019-06-10T11:09:50.933Z,12.23
2019-06-10T11:12:19.726Z,12.75
2019-06-10T11:14:46.999Z,11.50
2019-06-10T11:17:13.552Z,10.78
2019-06-10T11:19:39.751Z,16.07
2019-06-10T11:22:06.099Z,11.28
2019-06-10T11:24:37.864Z,12.50
2019-06-10T11:27:02.982Z,13.00
2019-06-10T11:29:28.804Z,11.15
2019-06-10T11:31:57.360Z,8.95
2019-06-10T11:34:24.180Z,10.63
2019-06-10T11:36:54.400Z,10.05
2019-06-10T11:39:19.213Z,8.25
2019-06-10T11:41:46.573Z,10.20
2019-06-10T11:44:13.046Z,9.15
2019-06-10T11:46:39.278Z,9.83
2019-06-10T11:49:05.627Z,10.32
2019-06-10T11:51:31.967Z,9.40
2019-06-10T11:53:58.939Z,13.55
2019-06-10T11:56:25.316Z,8.78
2019-06-10T11:58:55.149Z,9.80
2019-06-10T12:01:22.846Z,10.75
2019-06-10T12:03:48.735Z,12.95
2019-06-10T12:06:15.133Z,11.80
2019-06-10T12:08:43.838Z,13.95
2019-06-10T12:11:12.657Z,18.00
2019-06-10T12:13:38.356Z,12.47
2019-06-10T12:16:51.435Z,11.63
2019-06-10T12:18:33.372Z,10.78
2019-06-10T12:21:03.539Z,10.95
2019-06-10T12:23:28.281Z,10.00
2019-06-10T12:25:56.711Z,11.08
2019-06-10T12:28:22.778Z,10.10
2019-06-10T12:30:51.188Z,9.90
2019-06-10T12:33:21.427Z,13.03
2019-06-10T12:35:46.160Z,11.45
2019-06-10T12:38:13.800Z,9.45
2019-06-10T12:40:42.751Z,11.33
2019-06-10T12:43:08.536Z,9.98
2019-06-10T12:45:34.984Z,9.20
2019-06-10T12:48:05.046Z,11.50
2019-06-10T12:50:29.358Z,10.70
2019-06-10T12:52:56.505Z,10.78
2019-06-10T12:55:37.901Z,9.38
2019-06-10T12:57:53.284Z,12.35
2019-06-10T13:00:26.207Z,10.63
2019-06-10T13:02:53.021Z,15.58
2019-06-10T13:05:18.849Z,11.30
2019-06-10T13:07:45.781Z,8.53
2019-06-10T13:10:15.788Z,10.23
2019-06-10T13:12:42.935Z,11.53
2019-06-10T13:15:32.850Z,10.63
2019-06-10T13:18:00.292Z,9.88
2019-06-10T13:20:26.590Z,9.15
2019-06-10T13:22:52.939Z,14.15
2019-06-10T13:25:19.207Z,9.13
2019-06-10T13:27:45.706Z,10.90
2019-06-10T13:30:13.474Z,12.73
2019-06-10T13:32:39.799Z,10.15
2019-06-10T13:35:07.625Z,10.95
2019-06-10T13:37:34.344Z,12.93
2019-06-10T13:40:04.571Z,12.20
2019-06-10T13:42:33.224Z,11.70
2019-06-10T13:44:57.829Z,9.63
2019-06-10T13:47:26.093Z,12.53
2019-06-10T13:49:53.236Z,11.80
2019-06-10T13:52:19.673Z,9.73
2019-06-10T13:54:46.194Z,12.58
2019-06-10T13:57:13.845Z,10.50
2019-06-10T13:59:45.117Z,11.43
2019-06-10T14:02:10.294Z,11.08
2019-06-10T14:04:36.381Z,17.10
2019-06-10T14:07:07.399Z,15.50
2019-06-10T14:09:39.903Z,13.65
2019-06-10T14:12:09.107Z,12.33
2019-06-10T14:14:36.403Z,10.98
2019-06-10T14:17:03.921Z,11.18
2019-06-10T14:19:32.348Z,12.07
2019-06-10T14:21:58.609Z,12.82
2019-06-10T14:24:24.907Z,19.15
2019-06-10T14:26:53.179Z,16.10
2019-06-10T14:29:19.403Z,11.30
2019-06-10T14:31:49.124Z,12.55
2019-06-10T14:34:18.805Z,11.57
2019-06-10T14:36:45.365Z,12.70
2019-06-10T14:39:13.123Z,10.68
2019-06-10T14:41:39.752Z,10.65
2019-06-10T14:44:06.817Z,10.68
2019-06-10T14:46:33.319Z,10.05
2019-06-10T14:48:59.595Z,10.08
2019-06-10T14:51:25.918Z,12.13
2019-06-10T14:53:52.324Z,12.40
2019-06-10T14:56:19.754Z,10.40
2019-06-10T14:58:46.399Z,14.05
2019-06-10T15:01:19.710Z,9.70
2019-06-10T15:03:42.950Z,12.82
2019-06-10T15:06:09.546Z,10.63
2019-06-10T15:08:36.042Z,9.18
2019-06-10T15:11:02.329Z,14.55
2019-06-10T15:13:28.455Z,10.65
2019-06-10T15:15:54.884Z,13.60
2019-06-10T15:18:23.749Z,15.68
2019-06-10T15:20:49.517Z,10.98
2019-06-10T15:23:18.670Z,11.43
2019-06-10T15:25:52.409Z,10.63
2019-06-10T15:28:14.166Z,11.70
2019-06-10T15:30:43.009Z,11.28
2019-06-10T15:33:08.698Z,11.40
2019-06-10T15:35:36.783Z,9.35
2019-06-10T15:38:04.197Z,8.93
2019-06-10T15:40:32.513Z,10.15
2019-06-10T15:42:58.903Z,10.45
2019-06-10T15:45:25.140Z,9.93
2019-06-10T15:47:53.133Z,13.18
2019-06-10T15:50:21.168Z,11.03
2019-06-10T15:52:48.078Z,9.05
2019-06-10T15:55:33.467Z,12.73
2019-06-10T15:57:46.045Z,12.00
2019-06-10T16:00:17.689Z,10.40
2019-06-10T16:02:39.712Z,11.65
2019-06-10T16:05:06.239Z,14.73
2019-06-10T16:07:32.609Z,12.33
2019-06-10T16:09:58.766Z,12.33
2019-06-10T16:12:26.890Z,13.48
2019-06-10T16:14:53.369Z,12.20
2019-06-10T16:17:21.028Z,11.00
2019-06-10T16:19:47.571Z,14.98
2019-06-10T16:22:14.188Z,16.07
2019-06-10T16:24:42.298Z,13.78
2019-06-10T16:27:08.593Z,11.38
2019-06-10T16:29:34.948Z,11.93
2019-06-10T16:32:02.484Z,14.07
2019-06-10T16:34:29.202Z,14.70
2019-06-10T16:36:55.571Z,12.03
2019-06-10T16:39:24.194Z,14.35
2019-06-10T16:41:52.295Z,14.85
2019-06-10T16:44:19.864Z,12.55
2019-06-10T16:46:46.794Z,11.25
2019-06-10T16:49:13.346Z,8.70
2019-06-10T16:51:43.048Z,8.55
2019-06-10T16:54:09.594Z,12.00
2019-06-10T16:56:35.924Z,14.50
2019-06-10T16:59:02.956Z,13.15
2019-06-10T17:01:30.955Z,11.55
2019-06-10T17:03:57.639Z,9.08
2019-06-10T17:06:25.517Z,9.63
2019-06-10T17:08:52.359Z,9.58
2019-06-10T17:11:18.860Z,11.97
2019-06-10T17:13:45.262Z,11.48
2019-06-10T17:16:12.752Z,10.32
2019-06-10T17:18:39.343Z,10.93
2019-06-10T17:21:05.724Z,9.90
2019-06-10T17:23:36.307Z,11.48
2019-06-10T17:26:00.481Z,11.75
2019-06-10T17:28:29.785Z,11.55
2019-06-10T17:30:56.267Z,12.78
2019-06-10T17:33:24.446Z,14.13
2019-06-10T17:35:52.455Z,12.78
2019-06-10T17:38:20.534Z,12.35
2019-06-10T17:40:46.871Z,13.65
2019-06-10T17:43:13.189Z,14.10
2019-06-10T17:45:42.082Z,11.50
2019-06-10T17:48:07.956Z,14.98
2019-06-10T17:50:34.176Z,15.32
2019-06-10T17:53:02.463Z,15.48
2019-06-10T17:55:29.609Z,15.20
2019-06-10T17:57:57.200Z,17.25
2019-06-10T18:00:26.146Z,15.65
2019-06-10T18:02:53.565Z,14.73
2019-06-10T18:05:22.043Z,15.50
2019-06-10T18:07:48.143Z,16.67
2019-06-10T18:10:14.539Z,16.55
2019-06-10T18:12:42.309Z,16.17
2019-06-10T18:15:09.228Z,15.65
2019-06-10T18:17:37.531Z,16.57
2019-06-10T18:20:04.662Z,28.17
2019-06-10T18:22:33.458Z,17.73
2019-06-10T18:24:59.201Z,17.23
2019-06-10T18:27:26.879Z,15.58
2019-06-10T18:29:53.286Z,17.17
2019-06-10T18:32:19.654Z,15.53
2019-06-10T18:34:45.985Z,14.13
2019-06-10T18:37:12.302Z,16.95
2019-06-10T18:39:39.846Z,15.43
2019-06-10T18:42:06.098Z,13.83
2019-06-10T18:44:34.393Z,13.65
2019-06-10T18:47:03.015Z,15.40
2019-06-10T18:49:30.046Z,16.73
2019-06-10T18:51:56.547Z,16.65
2019-06-10T18:54:22.825Z,18.52
2019-06-10T18:56:52.406Z,18.60
2019-06-10T18:59:21.234Z,16.25
2019-06-10T19:01:46.520Z,17.07
2019-06-10T19:04:13.157Z,16.57
2019-06-10T19:06:39.922Z,17.48
2019-06-10T19:09:07.271Z,18.75
2019-06-10T19:11:34.207Z,17.70
2019-06-10T19:14:03.303Z,14.95
2019-06-10T19:16:32.247Z,21.17
2019-06-10T19:18:57.984Z,21.48
2019-06-10T19:21:24.190Z,22.65
2019-06-10T19:23:52.983Z,17.35
2019-06-10T19:26:18.674Z,17.05
2019-06-10T19:28:45.435Z,20.35
2019-06-10T19:31:11.975Z,17.48
2019-06-10T19:33:39.274Z,19.42
2019-06-10T19:36:06.464Z,20.27
2019-06-10T19:38:35.143Z,21.17
2019-06-10T19:41:02.745Z,21.25
2019-06-10T19:43:29.184Z,21.17
2019-06-10T19:45:55.450Z,17.57
2019-06-10T19:48:21.786Z,25.20
2019-06-10T19:50:50.469Z,22.60
2019-06-10T19:53:16.515Z,24.57
2019-06-10T19:55:45.965Z,23.62
2019-06-10T19:58:13.400Z,18.00
2019-06-10T20:00:39.773Z,20.65
2019-06-10T20:03:06.173Z,22.65
2019-06-10T20:05:34.412Z,23.60
2019-06-10T20:08:02.808Z,23.45
2019-06-10T20:10:28.768Z,22.25
2019-06-10T20:12:55.099Z,20.05
2019-06-10T20:15:23.713Z,22.62
2019-06-10T20:17:52.351Z,23.85
2019-06-10T20:20:18.581Z,24.55
2019-06-10T20:22:46.484Z,31.77
2019-06-10T20:25:13.319Z,27.00
2019-06-10T20:27:39.758Z,24.12
2019-06-10T20:30:21.619Z,23.62
2019-06-10T20:32:41.540Z,26.02
2019-06-10T20:35:07.337Z,24.63
2019-06-10T20:37:33.690Z,24.40
2019-06-10T20:39:59.801Z,36.38
2019-06-10T20:42:26.171Z,25.95
2019-06-10T20:44:52.390Z,31.25
2019-06-10T20:47:18.541Z,28.00
2019-06-10T20:49:46.801Z,28.85
2019-06-10T20:52:14.919Z,25.55
2019-06-10T20:54:43.411Z,26.02
2019-06-10T20:57:12.043Z,32.27
2019-06-10T20:59:39.069Z,28.65
2019-06-10T21:02:05.614Z,28.77
2019-06-10T21:04:32.373Z,35.25
2019-06-10T21:07:02.309Z,26.57
2019-06-10T21:09:28.769Z,22.93
2019-06-10T21:11:55.313Z,25.97
2019-06-10T21:14:22.916Z,26.37
2019-06-10T21:16:51.086Z,28.43
2019-06-10T21:19:17.544Z,29.57
2019-06-10T21:21:45.670Z,26.95
2019-06-10T21:24:12.624Z,25.95
2019-06-10T21:26:39.068Z,25.77
2019-06-10T21:29:05.466Z,24.25
2019-06-10T21:31:32.558Z,27.65
2019-06-10T21:33:59.114Z,24.00
2019-06-10T21:36:25.343Z,24.32
2019-06-10T21:38:55.420Z,25.37
2019-06-10T21:41:19.822Z,27.30
2019-06-10T21:43:49.700Z,30.82
2019-06-10T21:46:14.507Z,26.77
2019-06-10T21:48:43.818Z,46.80
2019-06-10T21:51:08.861Z,30.50
2019-06-10T21:53:35.355Z,30.23
2019-06-10T21:56:01.596Z,31.70
2019-06-10T21:58:28.053Z,28.65
2019-06-10T22:01:08.528Z,27.20
2019-06-10T22:03:23.585Z,30.17
2019-06-10T22:05:49.736Z,26.95
2019-06-10T22:08:16.203Z,27.27
2019-06-10T22:10:44.093Z,28.50
2019-06-10T22:13:12.282Z,53.15
2019-06-10T22:15:38.580Z,35.55
2019-06-10T22:18:07.114Z,30.55
2019-06-10T22:20:33.341Z,36.10
2019-06-10T22:23:02.372Z,38.35
2019-06-10T22:25:27.903Z,27.20
2019-06-10T22:27:54.225Z,35.78
2019-06-10T22:30:22.714Z,28.92
2019-06-10T22:32:49.357Z,32.80
2019-06-10T22:35:15.546Z,34.25
2019-06-10T22:37:41.725Z,28.12
2019-06-10T22:40:08.434Z,35.25
2019-06-10T22:42:34.963Z,23.30
2019-06-10T22:45:03.992Z,24.95
2019-06-10T22:47:29.413Z,25.93
2019-06-10T22:49:57.972Z,24.15
2019-06-10T22:52:23.970Z,23.73
2019-06-10T22:54:52.172Z,21.27
2019-06-10T22:57:18.252Z,22.10
2019-06-10T22:59:44.362Z,20.68
2019-06-10T23:02:12.992Z,20.17
2019-06-10T23:04:38.602Z,20.08
2019-06-10T23:07:04.795Z,18.82
2019-06-10T23:09:31.371Z,21.70
2019-06-10T23:11:58.006Z,18.25
2019-06-10T23:14:25.521Z,21.12
2019-06-10T23:16:54.064Z,19.92
2019-06-10T23:19:19.953Z,20.37
2019-06-10T23:21:46.064Z,22.30
2019-06-10T23:24:13.483Z,22.57
2019-06-10T23:26:42.465Z,21.30
2019-06-10T23:29:08.837Z,22.48
2019-06-10T23:31:48.701Z,22.90
2019-06-10T23:34:03.298Z,23.40
2019-06-10T23:36:29.630Z,23.03
2019-06-10T23:38:57.061Z,25.07
2019-06-10T23:41:23.438Z,28.98
2019-06-10T23:43:50.866Z,30.00
2019-06-10T23:46:17.301Z,30.33
2019-06-10T23:48:43.391Z,27.57
2019-06-10T23:51:11.984Z,31.90
2019-06-10T23:53:37.626Z,32.17
2019-06-10T23:56:05.075Z,44.00
2019-06-10T23:58:32.874Z,44.50
